TAF Text Data
IDs:
Format:
Raw Decoded Include METAR

Data at: 1314 UTC 21 Oct 2018

KTYS 211253Z 05006KT 10SM FEW150 03/M01 A3034 RMK AO2 SLP275 T00331011

KTYS 211120Z 2112/2212 02010G17KT P6SM FEW040
  FM211500 03007KT P6SM SKC
  FM220100 VRB03KT P6SM SCT250


KGSO 211254Z 32007KT 10SM FEW030 07/M01 A3018 RMK AO2 SLP220 T00671011

KGSO 211121Z 2112/2212 32009G18KT P6SM SKC
  FM212200 34007KT P6SM SKC
  FM220400 VRB03KT P6SM SKC


KCLT 211252Z 32007G19KT 10SM CLR 08/M02 A3024 RMK AO2 SLP237 T00831017

KCLT 211120Z 2112/2218 34010G15KT P6SM SKC
  FM211900 35007KT P6SM SKC
  FM221100 VRB03KT P6SM SKC


KRDU 211251Z 34006KT 10SM CLR 08/M01 A3015 RMK AO2 SLP210 T00781011

KRDU 211121Z 2112/2212 32010G23KT P6SM SKC
  FM211900 33008G17KT P6SM SKC
  FM212200 33006KT P6SM SKC
  FM220700 VRB03KT P6SM SKC


KPOB 211308Z AUTO 34008KT 10SM CLR 10/M02 A3019 RMK AO2 PRESRR SLP226 $

TAF AMD KPOB 211212Z 2112/2215 35012KT 9999 SKC QNH2995INS
  TEMPO 2112/2116 35015G25KT
  BECMG 2119/2120 35006KT 9999 SKC QNH3016INS TX14/2119Z TN06/2209Z


KFBG 211256Z AUTO 33010KT 10SM CLR 10/M02 A3017 RMK AO2 SLP219 T00951022 $

TAF AMD KFBG 211212Z 2112/2215 35012KT 9999 SKC QNH2995INS
  TEMPO 2112/2116 35015G25KT
  BECMG 2119/2120 35006KT 9999 SKC QNH3016INS TX14/2119Z TN06/2209Z


KFAY 211253Z 33015G20KT 10SM CLR 10/M03 A3017 RMK AO2 SLP211 T01001028

KFAY 211121Z 2112/2212 34011G25KT P6SM SKC
  FM211900 35010G19KT P6SM SKC
  FM212200 35008KT P6SM SKC
  FM220800 01006KT P6SM SKC


KRWI 211253Z AUTO 30011G18KT 10SM CLR 09/00 A3012 RMK AO2 SLP200 T00890000

KRWI 211121Z 2112/2212 32011G23KT P6SM SKC
  FM212000 33010KT P6SM SKC
  FM220100 36006KT P6SM SKC
  FM220900 VRB03KT P6SM SKC


KISO 211256Z 32010G14KT 10SM CLR 09/00 A3012

KISO 211120Z 2112/2212 33011G23KT P6SM SKC
  FM212000 34007KT P6SM SKC
  FM220000 00000KT P6SM SKC AMD LTD TO CLD VIS AND WIND


KGWW 211300Z AUTO 31007G14KT 240V340 10SM CLR 09/00 A3013 RMK AO2 T00881002


KGSB 211256Z AUTO 30013G17KT 10SM CLR 10/M02 A3012 RMK AO2 SLP203 T00971017 $


KDPL 211300Z AUTO 33011G20KT 10SM CLR 10/M01 A3015 RMK AO2


KCTZ 211300Z AUTO 31008G14KT 280V340 10SM CLR 10/00 A3017 RMK AO2 T00961005


KORF 211251Z 33017G29KT 300V360 10SM BKN043 10/01 A3004 RMK AO2 PK WND 31029/1248 SLP170 T01000011

KORF 211120Z 2112/2212 32020G35KT P6SM SCT040
  TEMPO 2112/2115 BKN040
  FM212300 34011KT P6SM SKC


KLFI 211256Z AUTO 32024G36KT 10SM CLR 10/01 A3003 RMK AO2 SLP176 T00990013 $

TAF AMD KLFI 211300Z 2113/2215 30015G25KT 9999 FEW100 QNH2995INS
  TEMPO 2113/2117 32020G35KT 510003
  BECMG 2116/2117 33015G25KT 9999 FEW050 QNH3010INS
  BECMG 2123/2124 33009KT 9999 SKC QNH3019INS TX14/2118Z TN05/2209Z


KNTU 211256Z 32016G31KT 10SM BKN041 09/02 A3002 RMK AO2 PK WND 34036/1232 SLP166 T00940017

TAF KNTU 2107/2207 30020G30KT 9999 FEW035 510003 QNH2976INS
  BECMG 2112/2114 33020G30KT FEW050 510003 QNH3000INS
  BECMG 2119/2121 32015G25KT SKC 510003 QNH3014INS
  BECMG 2123/2201 35010KT FEW030 500000 QNH3018INS
  BECMG 2204/2206 VRB06KT SKC QNH3022INS T10/2112Z T15/2120Z FN00170


KECG 211254Z 31021G30KT 10SM CLR 10/00 A3004 RMK AO2 PK WND 30030/1250 SLP171 T01000000

KECG 211120Z 2112/2212 32015G30KT P6SM SKC
  FM211900 33013G23KT P6SM SKC
  FM212300 34006KT P6SM SKC


KEWN 211254Z 32012G20KT 280V340 10SM CLR 10/01 A3011 RMK AO2 SLP196 T01000006

KEWN 211120Z 2112/2212 33013G26KT P6SM SKC
  FM212000 34008KT P6SM SKC
  FM220000 VRB03KT P6SM SKC


KNKT 211254Z 33022G36KT 10SM CLR 12/01 A3009 RMK AO2 PK WND 35043/1206 SLP186 T01170011

TAF COR KNKT 2109/2209 31015G22KT 9999 FEW042 QNH2989INS

KILM 211253Z 35014G20KT 10SM CLR 11/M02 A3012 RMK AO2 PK WND 01027/1223 SLP197 T01061022

KILM 211121Z 2112/2212 34015G24KT P6SM SKC
  TEMPO 2112/2115 34018G30KT
  FM212100 34011KT P6SM SKC
  FM220000 01002KT P6SM SKC


KCAE 211256Z 36011KT 10SM CLR 12/00 A3019 RMK AO2 SLP222 T01170000

KCAE 211123Z 2112/2212 34010G20KT P6SM SKC
  FM211800 36008KT P6SM SKC
  FM212300 VRB03KT P6SM SKC


KSSC 211256Z AUTO 01015G22KT 10SM CLR 11/M03 A3017 RMK AO2 PRESRR SLP218 T01051032 $

TAF AMD KSSC 210930Z 2109/2213 32009KT 9999 SKC WS020/34030KT QNH2989INS
  BECMG 2110/2111 34009KT 9999 SKC QNH3000INS
  BECMG 2112/2113 35012G20KT 9999 SKC QNH3013INS
  BECMG 2119/2120 36012KT 9999 SKC QNH3015INS
  BECMG 2123/2124 35006KT 9999 SKC QNH3019INS TX17/2120Z TN09/2111Z


KMMT 211256Z AUTO 36011G24KT 10SM CLR 11/M03 A3018 RMK AO2 SLP222 T01121030 $

TAF AMD KMMT 210930Z 2109/2213 32009KT 9999 SKC WS020/34030KT QNH2989INS
  BECMG 2110/2111 34009KT 9999 SKC QNH3000INS
  BECMG 2112/2113 35012G20KT 9999 SKC QNH3013INS
  BECMG 2119/2120 36012KT 9999 SKC QNH3015INS
  BECMG 2123/2124 35006KT 9999 SKC QNH3019INS TX17/2120Z TN09/2111Z


KMYR 211256Z 36023G27KT 10SM CLR 12/M01 A3014 RMK AO2 PK WND 36030/1227 SLP206 T01221011

KMYR 211121Z 2112/2212 34015G23KT P6SM SKC
  FM211900 36011KT P6SM SKC
  FM220000 01004KT P6SM SKC


KCHS 211256Z 02017G23KT 10SM FEW250 15/05 A3013 RMK AO2 SLP201 T01500050 $

KCHS 211120Z 2112/2212 34011KT P6SM SKC
  FM211400 36015G22KT P6SM SKC
  FM212000 36009KT P6SM SKC
  FM220000 03004KT P6SM SKC


KSAV 211253Z 34010KT 10SM FEW180 14/09 A3014 RMK AO2 SLP204 T01440094

KSAV 211120Z 2112/2212 32009KT P6SM SKC
  FM211300 35013G20KT P6SM SKC
  FM211900 36008KT P6SM SKC
  FM220000 04003KT P6SM SKC


KSVN 211256Z AUTO 36005KT 10SM CLR 15/10 A3010 RMK AO2 SLP196 T01490097 FZRANO $

TAF KSVN 211200Z 2112/2218 36009KT 9999 SKC 510054 QNH3000INS
  BECMG 2113/2114 03015G20KT 9999 SKC QNH3016INS
  BECMG 2119/2120 36006KT 9999 SKC QNH3021INS
  BECMG 2214/2215 03006KT 9999 BKN021 QNH3027INS TX19/2121Z TN11/2211Z


KDCA 211252Z 33017G30KT 10SM FEW040 SCT140 09/M01 A3007 RMK AO2 PK WND 35030/1249 SLP181 T00941006

KDCA 211120Z 2112/2218 33020G32KT P6SM FEW040
  FM212200 33016G22KT P6SM SKC
  FM220100 32009KT P6SM SKC
  FM220500 31005KT P6SM SKC
  FM221300 25005KT P6SM SKC
  FM221700 19007KT P6SM FEW110


KADW 211256Z AUTO 34018G28KT 10SM CLR 08/M01 A3004 RMK AO2 PK WND 32030/44 SLP180 T00831015 $

TAF KADW 210900Z 2109/2215 29015G25KT 9999 SCT035 QNH2982INS
  TEMPO 2109/2114 32020G35KT BKN035 510003
  BECMG 2113/2114 33020G35KT 9999 FEW045 510003 QNH3007INS
  BECMG 2116/2117 33015G25KT 9999 SKC QNH3013INS
  BECMG 2123/2124 31009KT 9999 SKC QNH3022INS WND 28006KT AFT 2206 TX11/2118Z TN03/2209Z